LFRZ/SNR METAR and TAF weather

Enter ICAO airport designator
Station Type Date Time Source
LFRZ METAR 2019/06/18 05:00 UTC NOAA

LFRZ 180500Z AUTO 35006KT 320V020 CAVOK 16/13 Q1011 TEMPO SHRA SCT050CB


Station Type Date Time Source
LFRZ Decoded METAR 2019/06/18 05:00 UTC NOAA

St-Nazaire, France (LFRZ) 47-19N 002-10W 4M
Jun 18, 2019 - 01:00 AM EDT / 2019.06.18 0500 UTC
Wind: from the N (350 degrees) at 7 MPH (6 KT) (direction variable):0
Visibility: greater than 7 mile(s):0
Weather: Cumulonimbus clouds observed
Temperature: 60 F (16 C)
Dew Point: 55 F (13 C)
Relative Humidity: 82%
Pressure (altimeter): 29.85 in. Hg (1011 hPa)
ob: LFRZ 180500Z AUTO 35006KT 320V020 CAVOK 16/13 Q1011 TEMPO SHRA SCT050CB
cycle: 5

Station Type Date Time Source
LFRZ TAF 2019/06/17 18:21 UTC NOAA

TAF LFRZ 171700Z 1718/1818 VRB05KT CAVOK PROB30
TEMPO 1804/1807 SHRA SCT050TCU
BECMG 1813/1816 23010KT

Example: see airport list